Terminal Aerodrome Forecast
Issued by NWS North Platte, NE

Home | Current Version | Previous Version | Graphics & Text | Print | Product List | Glossary On
Versions: 1 2 3 4 5 6 7 8 9 10 11 12 13 14 15 16 17 18 19
000
FTUS43 KLBF 232341
TAFVTN
TAF
KVTN 232341Z 2400/2424 04018G27KT 1/2SM SN BLSN OVC010
      TEMPO 2400/2402 1/4SM SN BLSN OVC010
     FM240300 01016G24KT 1SM -SN BLSN OVC008
     FM241200 36014G20KT 2SM -SN BKN008 OVC015
     FM241500 35014G20KT 3SM -SN OVC015
     FM241800 35012G18KT P6SM BKN025=

USA.gov is the U.S. government's official web portal to all federal, state and local government web resources and services.